createdAt,value
2022-08-22T00:00:50.067Z,14.60
2022-08-22T00:03:07.955Z,16.00
2022-08-22T00:05:01.172Z,14.60
2022-08-22T00:09:23.577Z,14.60
2022-08-22T00:13:19.947Z,14.50
2022-08-22T00:17:22.728Z,14.50
2022-08-22T00:21:57.742Z,14.40
2022-08-22T00:25:54.140Z,14.40
2022-08-22T00:29:47.894Z,14.40
2022-08-22T00:33:57.505Z,14.30
2022-08-22T00:37:48.443Z,14.30
2022-08-22T00:41:49.701Z,14.20
2022-08-22T00:46:09.211Z,14.20
2022-08-22T00:50:03.046Z,14.10
2022-08-22T00:54:06.933Z,14.10
2022-08-22T00:58:45.693Z,14.00
2022-08-22T01:02:33.049Z,14.10
2022-08-22T01:06:40.167Z,14.00
2022-08-22T01:10:42.914Z,14.00
2022-08-22T01:14:59.991Z,14.00
2022-08-22T01:18:41.843Z,14.00
2022-08-22T01:22:49.447Z,14.00
2022-08-22T01:26:46.656Z,14.00
2022-08-22T01:30:52.915Z,14.00
2022-08-22T01:34:53.627Z,13.90
2022-08-22T01:38:38.295Z,13.90
2022-08-22T01:42:32.120Z,13.90
2022-08-22T01:46:45.992Z,13.90
2022-08-22T01:50:45.651Z,14.00
2022-08-22T01:54:33.592Z,14.00
2022-08-22T01:58:23.438Z,14.00
2022-08-22T02:02:08.498Z,14.00
2022-08-22T02:06:03.307Z,14.00
2022-08-22T02:10:18.459Z,14.00
2022-08-22T02:14:32.915Z,14.00
2022-08-22T02:18:26.284Z,14.00
2022-08-22T02:22:29.486Z,14.00
2022-08-22T02:26:38.696Z,14.00
2022-08-22T02:30:26.340Z,14.00
2022-08-22T02:34:23.425Z,14.00
2022-08-22T02:38:38.864Z,13.90
2022-08-22T02:42:50.312Z,13.90
2022-08-22T02:46:47.268Z,13.90
2022-08-22T02:51:15.353Z,13.90
2022-08-22T02:55:13.945Z,14.00
2022-08-22T02:59:00.148Z,14.00
2022-08-22T03:03:02.908Z,14.00
2022-08-22T03:07:00.199Z,14.00
2022-08-22T03:10:49.274Z,14.00
2022-08-22T03:14:58.531Z,14.00
2022-08-22T03:18:46.816Z,14.00
2022-08-22T03:22:48.805Z,14.00
2022-08-22T03:26:49.605Z,14.00
2022-08-22T03:30:38.010Z,13.90
2022-08-22T03:34:27.168Z,13.90
2022-08-22T03:38:32.371Z,13.80
2022-08-22T03:42:20.543Z,13.80
2022-08-22T03:46:30.210Z,13.80
2022-08-22T03:50:40.032Z,13.70
2022-08-22T03:55:03.372Z,13.70
2022-08-22T03:59:23.443Z,13.70
2022-08-22T04:03:32.452Z,13.60
2022-08-22T04:07:57.093Z,13.50
2022-08-22T04:12:00.777Z,13.50
2022-08-22T04:16:09.232Z,13.40
2022-08-22T04:20:36.484Z,13.40
2022-08-22T04:24:52.249Z,13.50
2022-08-22T04:28:36.906Z,13.50
2022-08-22T04:32:36.806Z,13.50
2022-08-22T04:36:30.626Z,13.50
2022-08-22T04:40:26.056Z,13.50
2022-08-22T04:44:24.126Z,13.50
2022-08-22T04:48:12.016Z,13.40
2022-08-22T04:52:05.930Z,13.40
2022-08-22T04:56:21.664Z,13.40
2022-08-22T05:00:09.124Z,13.40
2022-08-22T05:04:07.043Z,13.50
2022-08-22T05:07:54.221Z,13.60
2022-08-22T05:11:40.060Z,13.70
2022-08-22T05:15:35.398Z,13.80
2022-08-22T05:19:31.200Z,14.00
2022-08-22T05:23:18.105Z,14.10
2022-08-22T05:27:09.986Z,14.10
2022-08-22T05:30:52.502Z,14.10
2022-08-22T05:34:42.259Z,14.20
2022-08-22T05:38:30.067Z,14.20
2022-08-22T05:42:31.667Z,14.30
2022-08-22T05:46:40.352Z,14.40
2022-08-22T05:50:38.476Z,14.50
2022-08-22T05:54:33.549Z,14.70
2022-08-22T05:58:35.243Z,14.90
2022-08-22T06:02:26.353Z,15.00
2022-08-22T06:06:18.450Z,15.10
2022-08-22T06:10:08.610Z,15.30
2022-08-22T06:14:02.979Z,15.30
2022-08-22T06:17:49.974Z,15.40
2022-08-22T06:21:39.536Z,15.50
2022-08-22T06:25:27.083Z,15.60
2022-08-22T06:29:34.067Z,15.90
2022-08-22T06:33:23.001Z,16.10
2022-08-22T06:37:11.880Z,16.40
2022-08-22T06:40:55.856Z,16.60
2022-08-22T06:44:41.620Z,16.60
2022-08-22T06:48:43.711Z,16.80
2022-08-22T06:56:41.015Z,17.10
2022-08-22T07:00:26.603Z,17.30
2022-08-22T07:04:13.024Z,17.40
2022-08-22T07:07:56.346Z,17.60
2022-08-22T07:11:42.723Z,17.70
2022-08-22T07:15:28.061Z,17.80
2022-08-22T07:23:40.536Z,18.20
2022-08-22T07:27:29.284Z,18.50
2022-08-22T07:31:56.924Z,18.80
2022-08-22T07:35:53.495Z,19.00
2022-08-22T07:44:20.719Z,19.20
2022-08-22T07:48:06.968Z,19.20
2022-08-22T07:52:14.187Z,19.30
2022-08-22T07:56:01.947Z,19.30
2022-08-22T08:08:31.064Z,19.40
2022-08-22T08:17:46.432Z,20.90
2022-08-22T08:26:01.186Z,22.40
2022-08-22T08:34:40.150Z,22.60
2022-08-22T08:39:10.326Z,22.60
2022-08-22T08:43:30.056Z,22.70
2022-08-22T08:52:31.268Z,22.50
2022-08-22T08:57:02.380Z,22.40
2022-08-22T09:14:27.051Z,22.80
2022-08-22T09:18:34.562Z,23.10
2022-08-22T10:22:37.288Z,21.80
2022-08-22T10:31:58.767Z,21.80
2022-08-22T10:40:39.756Z,22.20
2022-08-22T10:45:09.041Z,22.30
2022-08-22T10:54:08.537Z,22.50
2022-08-22T10:58:40.057Z,22.70
2022-08-22T11:03:14.413Z,22.90
2022-08-22T11:12:09.514Z,23.20
2022-08-22T11:16:42.149Z,23.30
2022-08-22T12:19:17.541Z,25.00
2022-08-22T12:23:48.535Z,25.00
2022-08-22T12:31:59.629Z,24.80
2022-08-22T12:41:11.545Z,24.60
2022-08-22T12:59:43.637Z,24.10
2022-08-22T13:03:50.354Z,24.20
2022-08-22T13:30:12.595Z,25.60
2022-08-22T13:34:17.399Z,25.70
2022-08-22T13:39:09.074Z,25.50
2022-08-22T13:43:19.672Z,25.10
2022-08-22T14:23:43.570Z,23.00
2022-08-22T14:36:10.655Z,22.60
2022-08-22T15:07:36.276Z,23.90
2022-08-22T15:12:09.103Z,23.60
2022-08-22T15:25:42.954Z,22.50
2022-08-22T16:11:54.880Z,23.80
2022-08-22T16:16:25.900Z,23.50
2022-08-22T16:20:55.755Z,23.30
2022-08-22T16:25:28.409Z,23.10
2022-08-22T16:29:55.969Z,23.10
2022-08-22T17:02:37.651Z,22.80
2022-08-22T17:07:04.837Z,22.70
2022-08-22T17:16:07.041Z,22.60
2022-08-22T17:20:38.102Z,22.60
2022-08-22T17:34:08.209Z,22.50
2022-08-22T17:43:09.310Z,22.50
2022-08-22T17:47:38.976Z,22.40
2022-08-22T17:52:10.261Z,22.40
2022-08-22T17:56:40.812Z,22.30
2022-08-22T18:10:13.215Z,22.20
2022-08-22T18:14:40.192Z,22.20
2022-08-22T18:23:40.837Z,22.10
2022-08-22T18:37:13.243Z,21.90
2022-08-22T19:08:38.306Z,21.00
2022-08-22T19:22:20.533Z,20.70
2022-08-22T19:26:26.220Z,20.60
2022-08-22T19:30:33.930Z,20.60
2022-08-22T19:34:18.113Z,20.50
2022-08-22T19:38:02.642Z,20.50
2022-08-22T19:41:53.267Z,20.50
2022-08-22T19:45:40.255Z,20.50
2022-08-22T19:49:55.388Z,20.40
2022-08-22T19:54:01.482Z,20.40
2022-08-22T19:57:58.624Z,20.30
2022-08-22T20:01:46.612Z,20.30
2022-08-22T20:05:44.765Z,20.20
2022-08-22T20:09:50.441Z,20.10
2022-08-22T20:13:34.762Z,20.00
2022-08-22T20:17:25.781Z,19.90
2022-08-22T20:21:08.506Z,19.80
2022-08-22T20:24:59.656Z,19.70
2022-08-22T20:28:49.014Z,19.50
2022-08-22T20:32:33.382Z,19.40
2022-08-22T20:36:27.607Z,19.20
2022-08-22T20:40:56.228Z,19.10
2022-08-22T20:44:53.297Z,19.00
2022-08-22T20:48:41.415Z,18.80
2022-08-22T20:52:28.697Z,18.80
2022-08-22T20:56:12.025Z,18.60
2022-08-22T20:59:57.655Z,18.60
2022-08-22T21:03:51.715Z,18.60
2022-08-22T21:07:42.778Z,18.50
2022-08-22T21:11:40.326Z,18.50
2022-08-22T21:15:33.717Z,18.40
2022-08-22T21:19:24.891Z,18.40
2022-08-22T21:23:15.353Z,18.40
2022-08-22T21:27:03.247Z,18.30
2022-08-22T21:30:48.859Z,18.30
2022-08-22T21:34:42.840Z,18.20
2022-08-22T21:38:25.439Z,18.10
2022-08-22T21:42:07.342Z,18.10
2022-08-22T21:45:49.499Z,18.10
2022-08-22T21:49:31.542Z,18.10
2022-08-22T21:53:28.262Z,18.20
2022-08-22T21:57:10.198Z,18.20
2022-08-22T22:00:57.624Z,18.30
2022-08-22T22:04:40.094Z,18.20
2022-08-22T22:08:22.461Z,18.20
2022-08-22T22:12:04.597Z,18.10
2022-08-22T22:15:49.221Z,18.10
2022-08-22T22:19:31.398Z,18.10
2022-08-22T22:23:14.022Z,18.20
2022-08-22T22:26:56.574Z,18.20
2022-08-22T22:30:38.680Z,18.30
2022-08-22T22:34:20.756Z,18.30
2022-08-22T22:38:02.803Z,18.30
2022-08-22T22:41:44.879Z,18.30
2022-08-22T22:45:27.072Z,18.30
2022-08-22T22:49:09.081Z,18.30
2022-08-22T22:52:51.127Z,18.30
2022-08-22T22:56:36.477Z,18.30
2022-08-22T23:00:20.216Z,18.30
2022-08-22T23:04:05.605Z,18.30
2022-08-22T23:07:47.906Z,18.30
2022-08-22T23:11:31.325Z,18.30
2022-08-22T23:15:13.282Z,18.30
2022-08-22T23:18:56.340Z,18.40
2022-08-22T23:22:38.432Z,18.40
2022-08-22T23:26:20.744Z,18.40
2022-08-22T23:30:03.205Z,18.50
2022-08-22T23:33:46.959Z,18.50
2022-08-22T23:37:29.064Z,18.60
2022-08-22T23:41:12.677Z,18.70
2022-08-22T23:44:54.566Z,18.80
2022-08-22T23:48:36.572Z,18.80
2022-08-22T23:52:18.704Z,18.80
2022-08-22T23:56:21.829Z,18.90
